Time;durP1;ratioP1;P1;durP2;ratioP2;P2;SDS_P1;SDS_P2;PMS_P1;PMS_P2;Temp;Humidity;BMP_temperature;BMP_pressure;BME280_temperature;BME280_humidity;BME280_pressure;Samples;Min_cycle;Max_cycle;Signal;HPM_P1;HPM_P2
2022/10/22 00:01:18;;;;;;;9.23;2.10;;;14.80;70.70;;;;;;4964368;28;48002;-68
2022/10/22 00:03:44;;;;;;;14.07;2.80;;;14.80;70.50;;;;;;4963632;28;45792;-68
2022/10/22 00:06:10;;;;;;;4.67;2.50;;;14.80;70.50;;;;;;4982293;28;46490;-68
2022/10/22 00:08:35;;;;;;;4.03;2.40;;;14.80;70.10;;;;;;4962690;28;46490;-68
2022/10/22 00:11:16;;;;;;;13.43;2.50;;;14.70;71.00;;;;;;4982248;28;47346;-68
2022/10/22 00:13:42;;;;;;;3.93;1.97;;;14.70;71.30;;;;;;4963889;28;46395;-69
2022/10/22 00:16:08;;;;;;;6.37;2.20;;;14.70;71.40;;;;;;4964369;28;46350;-69
2022/10/22 00:18:35;;;;;;;6.20;2.13;;;14.70;70.60;;;;;;4962916;28;46520;-69
2022/10/22 00:21:01;;;;;;;7.17;2.77;;;14.70;71.70;;;;;;4963879;28;48349;-68
2022/10/22 00:23:26;;;;;;;6.87;2.63;;;14.70;72.10;;;;;;4963029;28;46442;-68
2022/10/22 00:25:53;;;;;;;4.20;2.10;;;14.70;72.30;;;;;;4963752;28;46424;-68
2022/10/22 00:28:19;;;;;;;3.33;2.10;;;14.70;72.40;;;;;;4979951;28;46369;-68
2022/10/22 00:30:45;;;;;;;4.83;2.33;;;14.60;71.50;;;;;;4962886;28;48695;-68
2022/10/22 00:33:10;;;;;;;5.80;1.83;;;14.70;72.90;;;;;;4963490;28;46399;-68
2022/10/22 00:35:36;;;;;;;11.37;2.07;;;14.70;73.00;;;;;;4962404;28;46458;-68
2022/10/22 00:38:02;;;;;;;4.60;1.90;;;14.60;73.30;;;;;;4964283;28;46409;-68
2022/10/22 00:40:28;;;;;;;8.03;2.10;;;14.60;72.40;;;;;;4963271;28;48751;-68
2022/10/22 00:42:54;;;;;;;3.97;1.87;;;14.60;73.60;;;;;;4963589;28;46528;-69
2022/10/22 00:45:25;;;;;;;7.10;1.83;;;14.60;73.50;;;;;;4963276;28;46476;-68
2022/10/22 00:48:26;;;;;;;7.47;1.83;;;14.60;73.80;;;;;;4963796;28;46406;-67
2022/10/22 00:50:55;;;;;;;5.33;1.70;;;14.60;72.90;;;;;;4964108;28;46412;-67
2022/10/22 00:53:30;;;;;;;6.13;1.83;;;14.60;73.60;;;;;;4963629;28;46497;-68
2022/10/22 00:55:56;;;;;;;3.63;1.90;;;14.70;73.70;;;;;;4964132;28;46430;-67
2022/10/22 00:58:27;;;;;;;4.20;1.90;;;14.70;72.70;;;;;;4963789;28;46414;-68
2022/10/22 01:00:54;;;;;;;4.93;1.90;;;14.70;73.60;;;;;;4963545;28;47967;-67
2022/10/22 01:03:20;;;;;;;4.13;2.10;;;14.70;73.40;;;;;;4963583;28;46429;-68
2022/10/22 01:05:55;;;;;;;7.00;2.03;;;14.70;73.40;;;;;;4963260;28;46306;-68
2022/10/22 01:08:53;;;;;;;7.57;2.30;;;14.70;73.20;;;;;;4963620;28;46441;-67
2022/10/22 01:11:19;;;;;;;7.83;1.83;;;14.70;73.30;;;;;;4963249;28;48939;-68
2022/10/22 01:13:51;;;;;;;5.13;1.50;;;14.70;73.40;;;;;;4972043;28;46391;-68
2022/10/22 01:16:29;;;;;;;2.93;1.80;;;14.60;73.60;;;;;;4963804;28;46387;-68
2022/10/22 01:19:43;;;;;;;3.70;1.60;;;14.60;72.90;;;;;;4963503;28;46766;-67
2022/10/22 01:22:32;;;;;;;6.50;2.10;;;14.60;73.90;;;;;;4981175;28;47940;-68
2022/10/22 01:25:20;;;;;;;3.30;1.73;;;14.60;74.00;;;;;;4980875;28;46356;-68
2022/10/22 01:28:00;;;;;;;5.90;2.40;;;14.60;74.10;;;;;;4963974;28;46675;-68
2022/10/22 01:30:26;;;;;;;6.70;1.90;;;14.60;73.10;;;;;;4962602;28;46408;-69
2022/10/22 01:33:01;;;;;;;5.27;2.33;;;14.60;74.20;;;;;;4964015;28;48035;-69
2022/10/22 01:35:33;;;;;;;5.60;1.50;;;14.60;74.10;;;;;;4963166;28;46409;-68
2022/10/22 01:38:02;;;;;;;6.73;1.87;;;14.60;74.20;;;;;;4962211;28;46476;-68
2022/10/22 01:40:29;;;;;;;5.60;2.00;;;14.60;73.40;;;;;;4962658;28;46639;-69
2022/10/22 01:43:04;;;;;;;5.23;2.00;;;14.60;74.70;;;;;;4979684;28;46369;-68
2022/10/22 01:45:34;;;;;;;5.23;2.03;;;14.60;74.80;;;;;;4979570;28;46449;-67
2022/10/22 01:48:13;;;;;;;5.30;1.93;;;14.60;75.00;;;;;;4962420;28;46398;-68
2022/10/22 01:51:01;;;;;;;9.53;1.93;;;14.60;74.10;;;;;;4961915;28;46350;-68
2022/10/22 01:53:41;;;;;;;4.50;2.20;;;14.60;75.10;;;;;;4980471;28;47742;-68
2022/10/22 01:56:35;;;;;;;7.70;1.83;;;14.70;74.90;;;;;;4978749;28;46449;-67
2022/10/22 01:59:16;;;;;;;4.50;2.00;;;14.60;74.40;;;;;;4962075;28;45924;-67
2022/10/22 02:02:01;;;;;;;5.27;1.97;;;14.60;75.50;;;;;;4963129;28;46405;-67
2022/10/22 02:05:04;;;;;;;2.77;1.73;;;14.50;76.10;;;;;;4979742;28;46681;-67
2022/10/22 02:07:34;;;;;;;4.53;1.53;;;14.30;77.20;;;;;;4943530;28;46464;-69
2022/10/22 02:10:01;;;;;;;4.03;1.80;;;14.10;77.40;;;;;;4962828;28;46496;-68
2022/10/22 02:12:29;;;;;;;4.23;1.80;;;14.00;78.80;;;;;;4962338;28;46669;-68
2022/10/22 02:14:56;;;;;;;5.43;1.60;;;13.90;78.90;;;;;;4980204;28;47791;-68
2022/10/22 02:17:27;;;;;;;6.73;1.70;;;13.80;79.00;;;;;;4962759;28;46397;-67
2022/10/22 02:19:58;;;;;;;5.30;1.70;;;13.70;78.40;;;;;;4962941;28;46355;-68
2022/10/22 02:22:26;;;;;;;7.20;1.80;;;13.60;79.70;;;;;;4963297;28;45910;-67
2022/10/22 02:24:52;;;;;;;3.50;1.60;;;13.60;79.70;;;;;;4978426;28;47331;-67
2022/10/22 02:27:17;;;;;;;2.30;1.60;;;13.60;79.60;;;;;;4962673;28;46449;-68
2022/10/22 02:30:02;;;;;;;5.10;1.80;;;13.60;78.10;;;;;;4970047;28;46351;-68
2022/10/22 02:32:35;;;;;;;3.30;1.80;;;13.70;78.80;;;;;;4965422;28;46362;-68
2022/10/22 02:35:02;;;;;;;3.77;1.83;;;13.70;78.10;;;;;;4965104;28;48012;-68
2022/10/22 02:37:28;;;;;;;4.43;2.13;;;13.80;77.90;;;;;;4965811;28;46590;-69
2022/10/22 02:39:55;;;;;;;5.50;2.17;;;13.80;76.40;;;;;;4966055;28;46365;-69
2022/10/22 02:42:24;;;;;;;9.10;1.90;;;13.80;77.30;;;;;;4964789;28;46379;-68
2022/10/22 02:44:49;;;;;;;10.43;1.90;;;13.80;77.10;;;;;;4965417;28;47743;-68
2022/10/22 02:47:15;;;;;;;2.80;1.80;;;13.80;77.00;;;;;;4964571;28;46450;-68
2022/10/22 02:49:40;;;;;;;3.70;1.90;;;13.70;75.90;;;;;;4965790;28;46465;-67
2022/10/22 02:52:06;;;;;;;6.87;1.83;;;13.70;76.90;;;;;;4965735;28;46574;-67
2022/10/22 02:54:32;;;;;;;5.37;2.10;;;13.70;76.70;;;;;;4965109;28;46807;-68
2022/10/22 02:56:57;;;;;;;3.70;1.80;;;13.70;76.50;;;;;;4966123;28;46541;-68
2022/10/22 02:59:23;;;;;;;8.60;1.87;;;13.70;75.60;;;;;;4966216;28;46386;-68
2022/10/22 03:01:49;;;;;;;4.27;1.73;;;13.70;76.60;;;;;;4965900;28;46559;-68
2022/10/22 03:04:14;;;;;;;2.70;1.50;;;13.70;76.60;;;;;;4982873;28;46761;-70
2022/10/22 03:06:42;;;;;;;8.60;1.90;;;13.60;76.70;;;;;;4965172;28;46370;-69
2022/10/22 03:09:09;;;;;;;6.37;1.33;;;13.60;75.70;;;;;;4963932;28;46373;-69
2022/10/22 03:11:34;;;;;;;5.70;1.50;;;13.60;76.80;;;;;;4965154;28;46654;-69
2022/10/22 03:14:00;;;;;;;2.93;1.80;;;13.60;76.70;;;;;;4965025;28;48324;-68
2022/10/22 03:16:25;;;;;;;3.43;1.67;;;13.60;76.60;;;;;;4981907;28;46489;-68
2022/10/22 03:18:51;;;;;;;5.30;1.80;;;13.50;75.90;;;;;;4965457;28;46490;-69
2022/10/22 03:21:23;;;;;;;3.60;1.70;;;13.50;77.00;;;;;;4965270;28;46485;-68
2022/10/22 03:23:49;;;;;;;6.43;1.83;;;13.40;77.00;;;;;;4981414;28;49152;-68
2022/10/22 03:26:15;;;;;;;7.53;1.30;;;13.40;77.20;;;;;;4981291;28;46528;-69
2022/10/22 03:28:41;;;;;;;2.80;1.50;;;13.30;76.40;;;;;;4964585;28;46508;-68
2022/10/22 03:31:07;;;;;;;4.23;1.37;;;13.30;77.40;;;;;;4964198;28;46617;-68
2022/10/22 03:33:32;;;;;;;2.43;1.40;;;13.30;77.30;;;;;;4964953;28;48058;-68
2022/10/22 03:36:02;;;;;;;3.20;1.60;;;13.30;77.50;;;;;;4963472;28;46593;-69
2022/10/22 03:38:28;;;;;;;2.27;1.40;;;13.30;76.10;;;;;;4963992;28;46418;-68
2022/10/22 03:40:54;;;;;;;5.17;1.57;;;13.30;77.00;;;;;;4965278;28;46179;-68
2022/10/22 03:43:20;;;;;;;2.90;1.33;;;13.40;76.90;;;;;;4963663;28;47824;-68
2022/10/22 03:45:46;;;;;;;3.80;1.53;;;13.30;76.70;;;;;;4964770;28;45858;-67
2022/10/22 03:48:11;;;;;;;3.50;1.63;;;13.30;76.70;;;;;;4964485;28;46512;-68
2022/10/22 03:50:37;;;;;;;3.00;1.53;;;13.30;75.80;;;;;;4964415;28;46883;-67
2022/10/22 03:53:03;;;;;;;7.03;1.53;;;13.30;76.90;;;;;;4983236;28;46831;-68
2022/10/22 03:55:28;;;;;;;2.73;1.20;;;13.20;76.90;;;;;;4966425;28;46447;-67
2022/10/22 03:57:54;;;;;;;4.27;1.13;;;13.20;77.10;;;;;;4965375;28;46555;-68
2022/10/22 04:00:20;;;;;;;2.00;1.17;;;13.10;76.20;;;;;;4964489;28;46655;-69
2022/10/22 04:02:45;;;;;;;1.90;1.20;;;13.10;77.40;;;;;;4965442;28;46500;-69
2022/10/22 04:05:11;;;;;;;4.90;1.00;;;13.10;77.40;;;;;;4982759;28;46309;-68
2022/10/22 04:07:37;;;;;;;1.80;1.00;;;13.10;77.50;;;;;;4965000;28;46418;-68
2022/10/22 04:10:03;;;;;;;4.30;1.30;;;13.00;76.40;;;;;;4962699;28;46561;-67
2022/10/22 04:12:28;;;;;;;7.37;1.10;;;13.00;77.60;;;;;;4963727;28;48174;-67
2022/10/22 04:14:54;;;;;;;4.87;1.30;;;13.00;77.50;;;;;;4964532;28;45851;-67
2022/10/22 04:17:20;;;;;;;2.93;0.93;;;13.00;77.60;;;;;;4965269;28;46344;-66
2022/10/22 04:19:45;;;;;;;1.90;1.00;;;13.00;76.40;;;;;;4982107;28;46658;-67
2022/10/22 04:22:11;;;;;;;3.93;1.20;;;13.00;77.60;;;;;;4964987;28;47737;-67
2022/10/22 04:24:37;;;;;;;1.73;1.00;;;13.00;78.60;;;;;;4964194;28;46350;-67
2022/10/22 04:27:02;;;;;;;1.77;0.83;;;13.00;77.40;;;;;;4964355;28;46411;-67
2022/10/22 04:29:28;;;;;;;2.37;0.87;;;13.00;76.20;;;;;;4964287;28;46435;-67
2022/10/22 04:31:54;;;;;;;5.30;1.10;;;13.00;77.20;;;;;;4964230;28;48366;-67
2022/10/22 04:34:19;;;;;;;6.67;1.67;;;13.00;77.10;;;;;;4963691;28;46467;-67
2022/10/22 04:36:45;;;;;;;3.20;0.90;;;13.00;76.90;;;;;;4979534;28;46402;-67
2022/10/22 04:39:11;;;;;;;3.10;1.50;;;13.00;75.90;;;;;;4963600;28;46434;-67
2022/10/22 04:41:38;;;;;;;3.40;1.00;;;13.00;75.80;;;;;;4963659;28;47888;-67
2022/10/22 04:44:04;;;;;;;5.73;1.10;;;13.00;77.00;;;;;;4962536;28;46337;-67
2022/10/22 04:46:32;;;;;;;3.37;1.10;;;13.00;76.90;;;;;;4980001;28;46457;-68
2022/10/22 04:48:58;;;;;;;2.00;0.97;;;13.00;75.90;;;;;;4980988;28;46678;-67
2022/10/22 04:51:25;;;;;;;1.30;0.73;;;13.00;76.90;;;;;;4963536;28;47814;-67
2022/10/22 04:53:52;;;;;;;1.87;0.90;;;13.00;76.80;;;;;;4962864;28;46487;-67
2022/10/22 04:56:21;;;;;;;2.17;0.70;;;13.00;76.90;;;;;;4981757;28;46467;-67
2022/10/22 04:58:48;;;;;;;2.20;1.20;;;13.00;75.80;;;;;;4963957;28;46679;-67
2022/10/22 05:01:38;;;;;;;2.60;0.97;;;13.00;77.00;;;;;;4963154;28;49041;-67
2022/10/22 05:04:05;;;;;;;3.63;1.00;;;13.00;76.80;;;;;;4981288;28;46445;-68
2022/10/22 05:06:33;;;;;;;1.40;0.93;;;13.00;76.70;;;;;;4963432;28;46525;-69
2022/10/22 05:09:03;;;;;;;1.53;0.93;;;13.00;75.40;;;;;;4964057;28;46608;-69
2022/10/22 05:11:34;;;;;;;2.73;0.90;;;13.00;76.50;;;;;;4963222;28;47017;-67
2022/10/22 05:14:03;;;;;;;1.90;1.00;;;13.00;76.50;;;;;;4962180;28;46458;-68
2022/10/22 05:16:29;;;;;;;4.40;1.00;;;13.00;76.60;;;;;;4981336;28;46600;-67
2022/10/22 05:18:57;;;;;;;1.40;0.70;;;13.00;75.50;;;;;;4979503;28;46579;-67
2022/10/22 05:21:23;;;;;;;3.57;0.80;;;13.00;76.40;;;;;;4963888;28;48142;-67
2022/10/22 05:23:49;;;;;;;2.03;0.87;;;13.10;76.50;;;;;;4981341;28;45867;-69
2022/10/22 05:26:20;;;;;;;1.83;1.07;;;13.00;76.30;;;;;;4963731;28;46386;-68
2022/10/22 05:28:48;;;;;;;1.83;0.70;;;13.10;75.20;;;;;;4963312;28;46458;-68
2022/10/22 05:31:14;;;;;;;3.37;0.80;;;13.10;76.30;;;;;;4963346;28;47942;-68
2022/10/22 05:33:41;;;;;;;1.40;0.80;;;13.10;76.30;;;;;;4963202;28;46466;-67
2022/10/22 05:36:09;;;;;;;2.50;0.97;;;13.10;76.20;;;;;;4980073;28;46522;-68
2022/10/22 05:38:35;;;;;;;4.20;1.10;;;13.10;75.30;;;;;;4963701;28;46684;-67
2022/10/22 05:41:03;;;;;;;1.40;0.80;;;13.10;76.30;;;;;;4962399;28;48165;-67
2022/10/22 05:43:29;;;;;;;1.93;0.80;;;13.00;76.20;;;;;;4961931;28;46450;-68
2022/10/22 05:45:55;;;;;;;1.80;0.80;;;13.00;76.40;;;;;;4963315;28;46361;-67
2022/10/22 05:48:21;;;;;;;7.60;4.60;;;13.00;76.50;;;;;;4962804;28;46444;-69
2022/10/22 05:50:49;;;;;;;3.73;3.07;;;13.00;75.40;;;;;;4962868;28;48214;-66
2022/10/22 05:53:17;;;;;;;9.00;2.63;;;13.00;76.40;;;;;;4963510;28;46421;-68
2022/10/22 05:55:43;;;;;;;1.50;0.93;;;13.00;76.20;;;;;;4963239;28;46491;-69
2022/10/22 05:58:09;;;;;;;1.67;1.17;;;13.10;76.20;;;;;;4963384;28;46447;-68
2022/10/22 06:00:35;;;;;;;2.40;1.60;;;13.10;74.80;;;;;;4978837;28;46365;-68
2022/10/22 06:03:01;;;;;;;5.13;1.90;;;13.10;75.90;;;;;;4962485;28;46332;-69
2022/10/22 06:05:27;;;;;;;2.93;1.70;;;13.00;75.70;;;;;;4963216;28;46427;-68
2022/10/22 06:07:53;;;;;;;1.73;1.00;;;13.10;75.70;;;;;;4966969;28;45891;-67
2022/10/22 06:10:20;;;;;;;2.43;0.80;;;13.10;74.60;;;;;;4965948;28;48245;-67
2022/10/22 06:12:47;;;;;;;1.90;1.00;;;13.10;75.70;;;;;;4966341;28;46617;-68
2022/10/22 06:15:14;;;;;;;2.43;1.40;;;13.10;75.60;;;;;;4966953;28;45799;-68
2022/10/22 06:17:40;;;;;;;3.23;1.40;;;13.10;75.70;;;;;;4967506;28;46456;-69
2022/10/22 06:20:07;;;;;;;4.00;2.60;;;13.10;74.70;;;;;;4967934;28;48082;-68
2022/10/22 06:22:32;;;;;;;1.70;1.20;;;13.10;75.70;;;;;;4967974;28;46425;-69
2022/10/22 06:24:58;;;;;;;6.33;3.90;;;13.10;75.70;;;;;;4983578;28;46460;-68
2022/10/22 06:27:24;;;;;;;2.77;1.67;;;13.10;75.80;;;;;;4982379;28;46457;-68
2022/10/22 06:29:49;;;;;;;3.90;1.50;;;13.20;74.70;;;;;;4965422;28;49137;-68
2022/10/22 06:32:15;;;;;;;1.73;1.10;;;13.20;75.60;;;;;;4966240;28;46432;-70
2022/10/22 06:34:41;;;;;;;1.50;1.00;;;13.20;75.50;;;;;;4982352;28;46420;-68
2022/10/22 06:37:08;;;;;;;3.50;1.20;;;13.30;75.30;;;;;;4982876;28;46440;-68
2022/10/22 06:39:33;;;;;;;1.30;0.80;;;13.30;74.10;;;;;;4964909;28;48286;-69
2022/10/22 06:41:59;;;;;;;1.80;1.03;;;13.30;75.20;;;;;;4965206;28;46470;-68
2022/10/22 06:44:25;;;;;;;2.43;0.90;;;13.30;75.10;;;;;;4981059;28;46479;-68
2022/10/22 06:46:51;;;;;;;2.97;1.13;;;13.40;74.90;;;;;;4983210;28;46769;-68
2022/10/22 06:49:18;;;;;;;2.33;0.80;;;13.40;74.00;;;;;;4965451;28;48025;-68
2022/10/22 06:51:48;;;;;;;2.13;1.00;;;13.40;75.10;;;;;;4982153;28;46403;-67
2022/10/22 06:54:13;;;;;;;2.23;0.90;;;13.50;74.80;;;;;;4964726;28;46399;-68
2022/10/22 06:56:39;;;;;;;3.50;0.80;;;13.50;74.50;;;;;;4966444;28;46591;-68
2022/10/22 06:59:05;;;;;;;3.37;1.53;;;13.60;73.10;;;;;;4982758;28;46369;-67
2022/10/22 07:01:32;;;;;;;2.07;0.80;;;13.60;74.20;;;;;;4972154;28;46385;-68
2022/10/22 07:03:58;;;;;;;1.20;0.70;;;13.70;74.10;;;;;;4965569;28;46369;-68
2022/10/22 07:06:26;;;;;;;3.63;0.90;;;13.80;74.00;;;;;;4964893;28;46369;-68
2022/10/22 07:08:53;;;;;;;3.30;1.47;;;13.80;73.70;;;;;;4964132;28;48068;-68
2022/10/22 07:11:22;;;;;;;1.33;0.73;;;13.90;73.50;;;;;;4964676;28;46472;-67
2022/10/22 07:13:49;;;;;;;1.30;0.70;;;14.00;73.10;;;;;;4964483;28;46706;-68
2022/10/22 07:16:16;;;;;;;2.13;0.70;;;14.20;74.00;;;;;;4964765;28;46421;-68
2022/10/22 07:18:43;;;;;;;1.87;0.90;;;14.30;73.70;;;;;;4963422;28;46492;-68
2022/10/22 07:21:10;;;;;;;1.77;0.77;;;14.40;72.30;;;;;;4982021;28;46478;-68
2022/10/22 07:23:39;;;;;;;2.27;0.90;;;14.50;71.70;;;;;;4981644;28;46387;-69
2022/10/22 07:26:07;;;;;;;1.30;0.70;;;14.70;71.40;;;;;;4964911;28;46715;-68
2022/10/22 07:28:36;;;;;;;2.27;1.00;;;14.80;71.30;;;;;;4963545;28;47229;-67
2022/10/22 07:31:02;;;;;;;1.90;1.00;;;14.90;70.90;;;;;;4963483;28;46470;-68
2022/10/22 07:33:28;;;;;;;4.13;1.77;;;15.00;70.50;;;;;;4964177;28;46560;-69
2022/10/22 07:36:03;;;;;;;1.77;1.00;;;15.10;71.30;;;;;;4964332;28;46702;-68
2022/10/22 07:38:30;;;;;;;6.33;1.17;;;15.10;70.50;;;;;;4981798;28;47961;-67
2022/10/22 07:40:56;;;;;;;2.00;1.10;;;15.10;70.40;;;;;;4966659;28;46405;-68
2022/10/22 07:43:22;;;;;;;2.50;1.10;;;15.10;70.50;;;;;;4967142;28;46473;-68
2022/10/22 07:45:48;;;;;;;3.17;1.27;;;15.20;70.40;;;;;;4966640;28;45978;-68
2022/10/22 07:48:13;;;;;;;1.70;0.80;;;15.20;70.20;;;;;;4966832;28;48977;-67
2022/10/22 07:50:39;;;;;;;1.70;0.90;;;15.30;68.80;;;;;;4965023;28;46492;-68
2022/10/22 07:53:04;;;;;;;5.00;1.20;;;15.30;69.90;;;;;;4965144;28;46384;-67
2022/10/22 07:55:32;;;;;;;3.50;1.30;;;15.40;69.40;;;;;;4982342;28;46484;-67
2022/10/22 07:57:58;;;;;;;1.77;0.80;;;15.50;69.50;;;;;;4964834;28;48062;-68
2022/10/22 08:00:24;;;;;;;2.00;1.20;;;15.40;68.40;;;;;;4963221;28;46436;-69
2022/10/22 08:02:49;;;;;;;1.43;0.80;;;15.40;69.40;;;;;;4964368;28;46517;-67
2022/10/22 08:05:15;;;;;;;2.53;0.93;;;15.40;69.40;;;;;;4964702;28;46556;-67
2022/10/22 08:07:41;;;;;;;2.50;1.07;;;15.50;69.50;;;;;;4964419;28;46488;-67
2022/10/22 08:10:07;;;;;;;1.90;1.00;;;15.50;68.40;;;;;;4964155;28;46474;-68
2022/10/22 08:12:34;;;;;;;6.43;0.83;;;15.50;69.50;;;;;;4963658;28;46618;-68
2022/10/22 08:14:59;;;;;;;1.73;0.70;;;15.50;69.50;;;;;;4981249;28;45857;-68
2022/10/22 08:17:26;;;;;;;5.53;0.80;;;15.50;69.50;;;;;;4962216;28;46432;-68
2022/10/22 08:19:51;;;;;;;1.70;0.70;;;15.60;68.60;;;;;;4981186;28;46400;-68
2022/10/22 08:22:17;;;;;;;1.50;0.80;;;15.60;69.60;;;;;;4963827;28;46351;-68
2022/10/22 08:24:43;;;;;;;1.37;0.77;;;15.60;69.60;;;;;;4962375;28;46313;-68
2022/10/22 08:27:08;;;;;;;1.70;0.80;;;15.60;69.60;;;;;;4962851;28;49573;-69
2022/10/22 08:29:34;;;;;;;2.80;0.60;;;15.70;69.70;;;;;;4980026;28;46384;-69
2022/10/22 08:32:01;;;;;;;1.93;0.87;;;15.80;69.80;;;;;;4963679;28;45908;-67
2022/10/22 08:34:27;;;;;;;1.60;0.80;;;16.00;68.80;;;;;;4963812;28;46544;-67
2022/10/22 08:36:53;;;;;;;1.90;0.80;;;16.10;68.30;;;;;;4964143;28;46528;-68
2022/10/22 08:39:20;;;;;;;1.83;0.90;;;16.30;68.00;;;;;;4963499;28;46396;-67
2022/10/22 08:41:48;;;;;;;4.10;0.93;;;16.30;67.90;;;;;;4963997;28;46533;-67
2022/10/22 08:44:49;;;;;;;4.73;0.90;;;16.40;67.90;;;;;;4978948;28;45945;-69
2022/10/22 08:47:24;;;;;;;3.90;0.80;;;16.40;67.50;;;;;;4980818;28;48861;-68
2022/10/22 08:49:52;;;;;;;1.90;1.13;;;16.50;66.20;;;;;;4980991;28;46336;-68
2022/10/22 08:52:19;;;;;;;3.13;0.93;;;16.50;67.30;;;;;;4959981;28;46536;-67
2022/10/22 08:54:54;;;;;;;5.30;0.83;;;16.60;67.30;;;;;;4960973;28;46196;-68
2022/10/22 08:57:29;;;;;;;1.80;0.77;;;16.50;67.30;;;;;;4961197;28;47475;-68
2022/10/22 09:00:12;;;;;;;1.60;0.73;;;16.40;66.50;;;;;;4960948;28;46533;-68
2022/10/22 09:03:14;;;;;;;1.60;0.80;;;16.30;67.70;;;;;;4978346;28;46475;-68
2022/10/22 09:06:09;;;;;;;2.80;1.13;;;16.30;67.60;;;;;;4978216;28;46514;-68
2022/10/22 09:08:37;;;;;;;1.90;0.90;;;16.30;66.40;;;;;;4959327;28;47940;-68
2022/10/22 09:11:23;;;;;;;3.07;1.93;;;16.30;67.50;;;;;;4962338;28;46535;-69
2022/10/22 09:13:53;;;;;;;5.93;0.87;;;16.50;67.00;;;;;;4952442;28;45889;-68
2022/10/22 09:16:26;;;;;;;2.20;1.10;;;16.70;66.70;;;;;;4969212;28;46497;-69
2022/10/22 09:19:15;;;;;;;1.80;0.90;;;16.90;64.80;;;;;;4971505;28;46344;-68
2022/10/22 09:21:44;;;;;;;1.87;0.90;;;17.00;65.80;;;;;;4989659;28;46224;-68
2022/10/22 09:24:25;;;;;;;2.07;0.93;;;17.10;65.40;;;;;;4985987;28;46530;-67
2022/10/22 09:26:51;;;;;;;1.77;0.93;;;17.20;64.90;;;;;;4979460;28;46587;-67
2022/10/22 09:29:23;;;;;;;7.80;0.83;;;17.40;63.10;;;;;;4960858;28;48220;-67
2022/10/22 09:31:49;;;;;;;3.47;0.90;;;17.50;64.30;;;;;;4962498;28;46471;-67
2022/10/22 09:34:19;;;;;;;3.40;0.87;;;17.50;64.20;;;;;;4978901;28;46449;-67
2022/10/22 09:36:45;;;;;;;3.10;1.10;;;17.50;64.30;;;;;;4980545;28;45825;-68
2022/10/22 09:39:33;;;;;;;1.80;0.90;;;17.50;64.20;;;;;;4978144;28;46838;-68
2022/10/22 09:41:58;;;;;;;5.40;1.93;;;17.50;64.20;;;;;;4961965;28;46386;-67
2022/10/22 09:44:24;;;;;;;3.93;1.40;;;17.60;64.20;;;;;;4975542;28;45840;-68
2022/10/22 09:46:50;;;;;;;5.27;1.50;;;17.60;62.20;;;;;;4977159;28;46506;-68
2022/10/22 09:49:22;;;;;;;1.80;1.10;;;17.80;61.70;;;;;;4978453;28;46367;-68
2022/10/22 09:51:57;;;;;;;2.00;1.10;;;17.90;62.60;;;;;;4960704;28;46439;-67
2022/10/22 09:54:24;;;;;;;2.93;1.53;;;18.00;62.20;;;;;;4978228;28;46434;-67
2022/10/22 09:56:51;;;;;;;2.20;1.20;;;18.00;61.70;;;;;;4969519;28;46463;-67
2022/10/22 09:59:23;;;;;;;2.13;1.07;;;18.00;60.60;;;;;;4968972;28;46306;-68
2022/10/22 10:01:56;;;;;;;2.00;1.20;;;18.10;61.70;;;;;;4960671;28;46692;-68
2022/10/22 10:04:22;;;;;;;8.00;1.10;;;18.10;61.20;;;;;;4961499;28;46390;-68
2022/10/22 10:06:54;;;;;;;1.90;1.10;;;18.10;61.30;;;;;;4959020;28;46611;-68
2022/10/22 10:09:23;;;;;;;1.73;0.90;;;18.20;59.50;;;;;;4960979;28;48893;-68
2022/10/22 10:12:01;;;;;;;2.80;0.90;;;18.20;60.60;;;;;;4961216;28;46433;-68
2022/10/22 10:14:38;;;;;;;3.83;0.80;;;18.20;60.10;;;;;;4960284;28;46354;-68
2022/10/22 10:17:13;;;;;;;2.53;0.93;;;18.10;58.60;;;;;;4963543;28;45952;-68
2022/10/22 10:19:45;;;;;;;2.23;0.90;;;17.90;59.40;;;;;;4960875;28;49021;-68
2022/10/22 10:22:37;;;;;;;1.90;0.90;;;17.90;60.40;;;;;;4960164;28;45906;-68
2022/10/22 10:25:26;;;;;;;1.90;0.90;;;17.90;60.60;;;;;;4961529;28;46511;-67
2022/10/22 10:27:57;;;;;;;3.40;1.13;;;17.70;60.90;;;;;;4961081;28;46374;-67
2022/10/22 10:30:23;;;;;;;2.83;0.77;;;17.70;60.30;;;;;;4958746;28;46662;-68
2022/10/22 10:33:16;;;;;;;2.63;1.03;;;17.60;61.60;;;;;;4978215;28;46471;-68
2022/10/22 10:35:53;;;;;;;3.40;0.87;;;17.70;61.50;;;;;;4961301;28;46508;-67
2022/10/22 10:38:38;;;;;;;2.30;1.00;;;17.80;59.60;;;;;;4960477;28;46554;-68
2022/10/22 10:41:22;;;;;;;5.07;1.10;;;17.80;60.50;;;;;;4975944;28;46938;-68
2022/10/22 10:44:32;;;;;;;1.70;0.80;;;17.70;59.90;;;;;;4959677;28;46535;-68
2022/10/22 10:47:06;;;;;;;1.90;0.90;;;17.60;59.90;;;;;;4959287;28;46497;-70
2022/10/22 10:49:35;;;;;;;3.53;1.00;;;17.70;58.90;;;;;;4975951;28;46380;-67
2022/10/22 10:52:20;;;;;;;2.47;0.80;;;17.70;59.60;;;;;;4961651;28;48110;-67
2022/10/22 10:54:46;;;;;;;2.00;0.80;;;17.80;59.70;;;;;;4979164;28;46551;-67
2022/10/22 10:57:23;;;;;;;2.53;0.80;;;17.90;59.20;;;;;;4964865;28;46534;-66
2022/10/22 11:00:13;;;;;;;3.70;0.90;;;17.70;57.70;;;;;;4963508;28;46393;-66
2022/10/22 11:02:59;;;;;;;1.53;0.70;;;17.70;58.80;;;;;;4962669;28;47293;-69
2022/10/22 11:05:28;;;;;;;2.13;1.03;;;17.70;58.80;;;;;;4964106;28;46433;-69
2022/10/22 11:08:04;;;;;;;2.90;0.80;;;17.70;58.80;;;;;;4982733;28;46625;-70
2022/10/22 11:10:46;;;;;;;3.80;0.93;;;17.80;57.80;;;;;;4963635;28;46405;-69
2022/10/22 11:13:35;;;;;;;2.20;0.90;;;18.00;58.90;;;;;;4965314;28;46681;-69
2022/10/22 11:16:43;;;;;;;16.43;1.10;;;18.10;57.60;;;;;;4965040;28;46526;-68
2022/10/22 11:19:37;;;;;;;3.23;0.90;;;17.90;56.40;;;;;;4920989;28;46388;-68
2022/10/22 11:22:17;;;;;;;2.00;1.10;;;17.90;57.40;;;;;;4964795;28;46743;-68
2022/10/22 11:24:50;;;;;;;2.33;1.03;;;18.10;57.40;;;;;;4963025;28;46507;-67
2022/10/22 11:27:48;;;;;;;3.27;1.20;;;18.30;57.20;;;;;;4964649;28;46597;-67
2022/10/22 11:30:18;;;;;;;2.23;1.10;;;18.60;56.80;;;;;;4948029;28;46425;-67
2022/10/22 11:32:57;;;;;;;3.80;1.10;;;18.80;56.60;;;;;;4964628;28;46447;-67
2022/10/22 11:35:33;;;;;;;3.57;1.00;;;18.80;56.20;;;;;;4963824;28;48417;-67
2022/10/22 11:37:59;;;;;;;3.13;1.00;;;18.70;56.40;;;;;;4963644;28;46403;-67
2022/10/22 11:40:28;;;;;;;13.87;6.70;;;18.60;55.30;;;;;;4980729;28;46570;-67
2022/10/22 11:43:26;;;;;;;5.47;1.90;;;18.50;56.60;;;;;;4964658;28;46364;-67
2022/10/22 11:46:20;;;;;;;4.90;1.57;;;18.50;57.10;;;;;;4961638;28;46652;-67
2022/10/22 11:49:02;;;;;;;2.30;1.10;;;18.60;56.10;;;;;;4946935;28;46489;-67
2022/10/22 11:51:35;;;;;;;4.30;1.00;;;18.60;57.00;;;;;;4963769;28;46461;-67
2022/10/22 11:54:22;;;;;;;2.90;1.10;;;18.60;56.80;;;;;;4979839;28;46468;-67
2022/10/22 11:56:56;;;;;;;5.20;1.03;;;18.50;56.70;;;;;;4962249;28;47737;-67
2022/10/22 11:59:45;;;;;;;6.27;1.40;;;18.30;55.70;;;;;;4963335;28;46633;-67
2022/10/22 12:02:29;;;;;;;2.50;0.93;;;18.30;56.80;;;;;;4934062;28;46520;-67
2022/10/22 12:05:15;;;;;;;3.80;1.40;;;18.30;57.10;;;;;;4977794;28;46389;-67
2022/10/22 12:07:55;;;;;;;3.53;1.27;;;18.20;57.10;;;;;;4963520;28;47650;-67
2022/10/22 12:10:26;;;;;;;19.80;8.77;;;18.20;57.20;;;;;;4962631;28;46441;-67
2022/10/22 12:13:01;;;;;;;2.77;1.20;;;18.50;57.10;;;;;;4981542;28;46463;-67
2022/10/22 12:15:28;;;;;;;3.80;1.00;;;18.60;56.50;;;;;;4961749;28;46608;-67
2022/10/22 12:18:04;;;;;;;3.20;0.90;;;18.60;56.20;;;;;;4963245;28;47807;-68
2022/10/22 12:20:30;;;;;;;3.27;1.30;;;18.80;54.90;;;;;;4979892;28;46565;-67
2022/10/22 12:22:58;;;;;;;2.53;0.97;;;18.80;55.30;;;;;;4962792;28;46144;-67
2022/10/22 12:25:28;;;;;;;3.83;1.20;;;18.60;54.70;;;;;;4963657;28;46622;-67
2022/10/22 12:27:56;;;;;;;2.47;1.23;;;18.60;54.80;;;;;;4963941;28;46656;-67
2022/10/22 12:30:25;;;;;;;3.03;1.30;;;18.60;53.20;;;;;;4962835;28;46847;-67
2022/10/22 12:32:53;;;;;;;5.50;1.13;;;18.60;54.30;;;;;;4962645;28;46466;-67
2022/10/22 12:35:22;;;;;;;2.90;1.10;;;18.70;53.60;;;;;;4962949;28;46749;-67
2022/10/22 12:37:50;;;;;;;3.33;1.00;;;18.60;52.50;;;;;;4962089;28;48070;-67
2022/10/22 12:40:25;;;;;;;2.83;1.23;;;18.40;51.70;;;;;;4962476;28;46390;-67
2022/10/22 12:42:59;;;;;;;4.67;1.40;;;18.40;52.90;;;;;;4963067;28;46455;-68
2022/10/22 12:45:28;;;;;;;3.67;1.13;;;18.20;52.70;;;;;;4963093;28;46596;-67
2022/10/22 12:48:03;;;;;;;3.77;1.03;;;18.00;52.90;;;;;;4978380;28;46631;-67
2022/10/22 12:50:36;;;;;;;2.27;1.10;;;18.00;52.20;;;;;;4960135;28;46388;-67
2022/10/22 12:53:03;;;;;;;2.80;1.30;;;18.20;53.00;;;;;;4963138;28;46330;-67
2022/10/22 12:55:32;;;;;;;3.77;1.47;;;18.30;53.00;;;;;;4980359;28;46433;-67
2022/10/22 12:57:58;;;;;;;4.03;1.30;;;18.40;52.70;;;;;;4980094;28;46478;-67
2022/10/22 13:00:26;;;;;;;4.00;1.23;;;18.50;51.20;;;;;;4962338;28;46585;-67
2022/10/22 13:02:52;;;;;;;5.07;1.30;;;18.60;52.10;;;;;;4962043;28;45939;-67
2022/10/22 13:05:18;;;;;;;3.80;1.30;;;18.70;51.70;;;;;;4962784;28;46452;-67